Time;durP1;ratioP1;P1;durP2;ratioP2;P2;SDS_P1;SDS_P2;PMS_P1;PMS_P2;Temp;Humidity;BMP_temperature;BMP_pressure;BME280_temperature;BME280_humidity;BME280_pressure;Samples;Min_cycle;Max_cycle;Signal;HPM_P1;HPM_P2
2024/02/15 00:02:04;;;;;;;21.15;15.52;;;7.70;21.20;;;;;;4872219;29;20060;-77
2024/02/15 00:04:33;;;;;;;22.73;17.25;;;7.70;19.70;;;;;;4865081;29;20037;-77
2024/02/15 00:06:59;;;;;;;19.95;15.25;;;7.70;18.90;;;;;;4875982;29;20298;-77
2024/02/15 00:09:26;;;;;;;20.83;16.27;;;7.60;13.50;;;;;;4883649;29;20059;-78
2024/02/15 00:11:53;;;;;;;23.60;15.90;;;7.60;13.60;;;;;;4881255;29;20040;-78
2024/02/15 00:14:19;;;;;;;21.63;15.25;;;7.60;10.00;;;;;;4882925;29;20679;-77
2024/02/15 00:16:45;;;;;;;18.38;15.60;;;7.60;9.70;;;;;;4882082;29;20064;-77
2024/02/15 00:19:11;;;;;;;24.02;14.88;;;7.60;9.30;;;;;;4885758;29;20033;-77
2024/02/15 00:21:37;;;;;;;19.70;14.52;;;7.60;9.20;;;;;;4880681;29;20476;-79
2024/02/15 00:24:03;;;;;;;21.38;15.35;;;7.50;3.30;;;;;;4888428;29;20029;-79
2024/02/15 00:26:28;;;;;;;20.63;15.00;;;7.50;11.30;;;;;;4889105;29;20035;-79
2024/02/15 00:28:54;;;;;;;17.15;13.32;;;7.50;11.80;;;;;;4876333;29;20083;-78
2024/02/15 00:31:20;;;;;;;17.17;13.52;;;7.50;7.80;;;;;;4888780;29;20040;-79
2024/02/15 00:33:45;;;;;;;21.27;13.80;;;7.50;7.80;;;;;;4887581;29;20504;-79
2024/02/15 00:36:11;;;;;;;18.02;13.98;;;7.50;11.00;;;;;;4885041;29;20464;-79
2024/02/15 00:38:37;;;;;;;24.60;14.82;;;7.50;11.00;;;;;;4885127;29;20043;-80
2024/02/15 00:41:02;;;;;;;21.52;15.23;;;7.40;12.70;;;;;;4884927;29;20031;-79
2024/02/15 00:43:28;;;;;;;18.13;13.55;;;7.40;18.50;;;;;;4886509;29;20395;-79
2024/02/15 00:45:54;;;;;;;14.15;11.90;;;7.40;16.10;;;;;;4884170;29;20029;-79
2024/02/15 00:48:20;;;;;;;18.67;12.82;;;7.40;7.70;;;;;;4887252;29;20108;-79
2024/02/15 00:50:45;;;;;;;17.02;13.05;;;7.40;7.10;;;;;;4886473;29;20539;-79
2024/02/15 00:53:11;;;;;;;12.77;11.38;;;7.30;4.70;;;;;;4886258;29;20432;-79
2024/02/15 00:55:37;;;;;;;17.23;11.68;;;7.40;1.70;;;;;;4884672;29;20082;-79
2024/02/15 00:58:03;;;;;;;17.95;12.65;;;7.40;1.00;;;;;;4887872;29;20672;-79
2024/02/15 01:00:29;;;;;;;13.35;11.65;;;7.40;1.00;;;;;;4885256;29;20048;-79
2024/02/15 01:02:55;;;;;;;15.73;10.65;;;7.40;1.00;;;;;;4888532;29;20491;-79
2024/02/15 01:05:21;;;;;;;14.00;10.73;;;7.40;1.00;;;;;;4888695;29;20028;-79
2024/02/15 01:07:48;;;;;;;13.98;11.35;;;7.40;1.00;;;;;;4885074;29;20025;-79
2024/02/15 01:10:15;;;;;;;14.95;11.07;;;7.40;1.00;;;;;;4870009;29;20040;-79
2024/02/15 01:12:41;;;;;;;13.57;11.10;;;7.40;1.00;;;;;;4887478;29;20029;-79
2024/02/15 01:15:06;;;;;;;15.52;10.75;;;7.40;1.00;;;;;;4886628;29;20056;-79
2024/02/15 01:17:32;;;;;;;15.20;10.02;;;7.40;1.00;;;;;;4886867;29;20057;-79
2024/02/15 01:19:59;;;;;;;16.23;10.57;;;7.40;1.00;;;;;;4886184;29;20032;-79
2024/02/15 01:22:26;;;;;;;15.50;10.10;;;7.40;1.00;;;;;;4886068;29;20041;-79
2024/02/15 01:24:51;;;;;;;12.88;10.02;;;7.40;1.00;;;;;;4875732;29;20373;-79
2024/02/15 01:27:17;;;;;;;12.63;8.98;;;7.40;1.00;;;;;;4888435;29;20032;-79
2024/02/15 01:29:43;;;;;;;13.13;9.88;;;7.40;1.00;;;;;;4890238;29;20044;-79
2024/02/15 01:32:09;;;;;;;16.40;10.63;;;7.40;1.00;;;;;;4888528;29;20025;-79
2024/02/15 01:34:34;;;;;;;11.43;9.20;;;7.40;1.00;;;;;;4892545;29;20031;-79
2024/02/15 01:37:03;;;;;;;11.07;9.15;;;7.40;1.00;;;;;;4888329;29;20069;-79
2024/02/15 01:39:29;;;;;;;12.30;9.25;;;7.40;1.00;;;;;;4891781;29;20119;-79
2024/02/15 01:41:56;;;;;;;12.55;9.98;;;7.50;1.00;;;;;;4888051;29;20104;-79
2024/02/15 01:44:24;;;;;;;13.57;9.60;;;7.50;1.00;;;;;;4884334;29;20057;-79
2024/02/15 01:46:53;;;;;;;13.82;11.05;;;7.50;1.00;;;;;;4889407;29;20036;-79
2024/02/15 01:49:19;;;;;;;17.60;11.05;;;7.40;1.00;;;;;;4887939;29;20062;-79
2024/02/15 01:51:45;;;;;;;12.43;9.43;;;7.40;1.00;;;;;;4887968;29;20560;-79
2024/02/15 01:54:13;;;;;;;13.77;9.75;;;7.40;1.00;;;;;;4891211;29;20487;-79
2024/02/15 01:56:38;;;;;;;12.73;9.27;;;7.40;1.00;;;;;;4888511;29;20033;-79
2024/02/15 01:59:06;;;;;;;12.20;9.20;;;7.40;1.00;;;;;;4890276;29;20080;-79
2024/02/15 02:01:33;;;;;;;13.85;9.88;;;7.40;1.00;;;;;;4891495;29;20060;-79
2024/02/15 02:03:59;;;;;;;15.32;10.52;;;7.40;1.00;;;;;;4889393;29;20171;-79
2024/02/15 02:06:26;;;;;;;15.50;11.23;;;7.40;1.00;;;;;;4889059;29;20103;-79
2024/02/15 02:08:53;;;;;;;16.13;11.45;;;7.40;1.00;;;;;;4890282;29;20029;-79
2024/02/15 02:11:20;;;;;;;13.93;10.13;;;7.40;1.00;;;;;;4887347;29;20120;-79
2024/02/15 02:13:46;;;;;;;12.60;10.45;;;7.40;1.00;;;;;;4891032;29;20033;-79
2024/02/15 02:16:28;;;;;;;10.95;9.85;;;7.40;1.00;;;;;;4891039;29;20096;-79
2024/02/15 02:18:57;;;;;;;11.65;9.60;;;7.30;1.00;;;;;;4895768;29;20514;-79
2024/02/15 02:21:27;;;;;;;13.02;10.38;;;7.30;1.00;;;;;;4890740;29;20029;-79
2024/02/15 02:23:55;;;;;;;13.18;10.20;;;7.40;1.00;;;;;;4891559;29;20096;-79
2024/02/15 02:26:22;;;;;;;15.52;9.57;;;7.40;1.00;;;;;;4871673;29;20048;-79
2024/02/15 02:28:48;;;;;;;13.32;9.77;;;7.30;1.00;;;;;;4890808;29;20029;-79
2024/02/15 02:31:14;;;;;;;15.15;10.75;;;7.30;1.00;;;;;;4879844;29;20443;-79
2024/02/15 02:33:47;;;;;;;13.77;9.23;;;7.30;1.00;;;;;;4892729;29;20103;-79
2024/02/15 02:36:12;;;;;;;11.00;9.18;;;7.30;1.00;;;;;;4887835;29;20033;-79
2024/02/15 02:38:38;;;;;;;10.45;8.57;;;7.30;1.00;;;;;;4890425;29;20039;-79
2024/02/15 02:41:04;;;;;;;11.30;8.85;;;7.30;1.00;;;;;;4884484;29;20029;-79
2024/02/15 02:43:30;;;;;;;13.73;10.55;;;7.30;1.00;;;;;;4887121;29;20081;-79
2024/02/15 02:45:55;;;;;;;12.55;10.10;;;7.30;1.00;;;;;;4886980;29;20028;-79
2024/02/15 02:48:21;;;;;;;15.00;9.15;;;7.30;1.00;;;;;;4884168;29;20056;-79
2024/02/15 02:50:48;;;;;;;11.38;9.70;;;7.30;1.00;;;;;;4889891;29;20032;-79
2024/02/15 02:53:15;;;;;;;11.68;9.52;;;7.30;1.00;;;;;;4888326;29;20438;-79
2024/02/15 02:55:42;;;;;;;11.20;9.55;;;7.30;1.00;;;;;;4885098;29;20025;-79
2024/02/15 02:58:08;;;;;;;11.13;9.50;;;7.30;1.00;;;;;;4869788;29;20024;-79
2024/02/15 03:00:34;;;;;;;11.80;9.45;;;7.30;1.00;;;;;;4886753;29;20051;-79
2024/02/15 03:03:00;;;;;;;14.70;10.18;;;7.20;1.00;;;;;;4886454;29;20054;-79
2024/02/15 03:05:27;;;;;;;14.00;11.25;;;7.20;1.00;;;;;;4893352;29;20024;-79
2024/02/15 03:07:53;;;;;;;15.52;12.65;;;7.20;1.00;;;;;;4881072;29;20108;-79
2024/02/15 03:10:19;;;;;;;16.70;11.63;;;7.20;1.00;;;;;;4886628;29;20060;-79
2024/02/15 03:12:46;;;;;;;16.98;12.48;;;7.20;1.00;;;;;;4873043;29;20096;-79
2024/02/15 03:15:13;;;;;;;16.83;13.18;;;7.20;1.00;;;;;;4886167;29;20391;-79
2024/02/15 03:17:46;;;;;;;17.17;13.70;;;7.20;1.00;;;;;;4886522;29;20028;-79
2024/02/15 03:20:20;;;;;;;21.63;13.20;;;7.20;1.00;;;;;;4878884;29;20040;-79
2024/02/15 03:22:59;;;;;;;19.65;13.52;;;7.10;1.00;;;;;;4886364;29;20132;-79
2024/02/15 03:25:26;;;;;;;19.90;13.88;;;7.10;1.00;;;;;;4870971;29;20029;-79
2024/02/15 03:27:52;;;;;;;17.77;13.70;;;7.20;1.00;;;;;;4869097;29;20033;-79
2024/02/15 03:30:26;;;;;;;18.73;13.52;;;7.20;1.00;;;;;;4889049;29;20036;-79
2024/02/15 03:32:53;;;;;;;16.23;13.50;;;7.20;1.00;;;;;;4886774;29;20112;-79
2024/02/15 03:35:22;;;;;;;16.75;13.57;;;7.20;1.00;;;;;;4888709;29;20191;-79
2024/02/15 03:37:51;;;;;;;23.42;16.23;;;7.20;1.00;;;;;;4891377;29;20032;-79
2024/02/15 03:40:17;;;;;;;25.08;16.10;;;7.10;1.00;;;;;;4886997;29;20037;-79
2024/02/15 03:42:43;;;;;;;17.77;15.55;;;7.10;1.00;;;;;;4889266;29;20065;-79
2024/02/15 03:45:10;;;;;;;24.38;16.65;;;7.10;1.00;;;;;;4888413;29;20123;-79
2024/02/15 03:47:37;;;;;;;22.58;15.32;;;7.10;1.00;;;;;;4886269;29;20021;-79
2024/02/15 03:50:09;;;;;;;23.35;15.52;;;7.10;1.00;;;;;;4872683;29;20084;-79
2024/02/15 03:52:35;;;;;;;19.25;15.20;;;7.10;1.00;;;;;;4886402;29;20080;-79
2024/02/15 03:55:02;;;;;;;23.67;15.68;;;7.10;1.00;;;;;;4887907;29;20051;-79
2024/02/15 03:57:28;;;;;;;20.58;15.43;;;7.00;1.00;;;;;;4885527;29;20033;-79
2024/02/15 03:59:56;;;;;;;22.88;16.80;;;7.10;1.00;;;;;;4885438;29;20029;-79
2024/02/15 04:02:26;;;;;;;22.55;16.90;;;7.00;1.00;;;;;;4888299;29;20031;-79
2024/02/15 04:04:54;;;;;;;23.15;16.95;;;7.00;1.00;;;;;;4885660;29;20025;-79
2024/02/15 04:07:20;;;;;;;22.40;17.83;;;7.00;1.00;;;;;;4889260;29;20020;-79
2024/02/15 04:09:46;;;;;;;25.88;19.00;;;7.00;6.30;;;;;;4882812;29;20029;-79
2024/02/15 04:12:12;;;;;;;24.77;17.95;;;6.90;6.20;;;;;;4886131;29;20047;-79
2024/02/15 04:14:38;;;;;;;25.73;16.95;;;6.90;3.90;;;;;;4878414;29;20490;-79
2024/02/15 04:17:04;;;;;;;23.00;17.30;;;6.90;3.40;;;;;;4886753;29;20041;-79
2024/02/15 04:19:31;;;;;;;23.90;16.85;;;6.80;1.00;;;;;;4877661;29;20059;-79
2024/02/15 04:21:57;;;;;;;19.05;15.93;;;6.90;2.80;;;;;;4883979;29;20048;-80
2024/02/15 04:24:23;;;;;;;26.60;17.27;;;6.80;1.40;;;;;;4896031;29;20021;-79
2024/02/15 04:26:49;;;;;;;23.10;17.65;;;6.80;7.60;;;;;;4888901;29;20065;-79
2024/02/15 04:29:15;;;;;;;24.38;17.25;;;6.80;12.40;;;;;;4887181;29;20070;-79
2024/02/15 04:31:42;;;;;;;22.17;17.10;;;6.80;1.00;;;;;;4876631;29;20029;-79
2024/02/15 04:34:11;;;;;;;23.85;17.25;;;6.80;2.30;;;;;;4885738;29;20069;-79
2024/02/15 04:36:37;;;;;;;22.45;16.23;;;6.80;6.60;;;;;;4887862;29;20111;-79
2024/02/15 04:39:04;;;;;;;22.00;17.00;;;6.70;6.70;;;;;;4886213;29;20120;-79
2024/02/15 04:41:30;;;;;;;25.00;17.20;;;6.80;10.00;;;;;;4885175;29;20036;-79
2024/02/15 04:43:55;;;;;;;22.25;16.90;;;6.70;12.10;;;;;;4885510;29;20029;-79
2024/02/15 04:46:22;;;;;;;24.95;15.88;;;6.70;7.10;;;;;;4886703;29;20029;-79
2024/02/15 04:48:49;;;;;;;23.98;17.02;;;6.70;5.70;;;;;;4886449;29;20032;-79
2024/02/15 04:51:19;;;;;;;24.38;18.08;;;6.70;11.40;;;;;;4876406;29;20046;-79
2024/02/15 04:53:49;;;;;;;24.83;17.15;;;6.60;16.60;;;;;;4879771;29;20028;-79
2024/02/15 04:56:15;;;;;;;23.15;17.50;;;6.60;19.70;;;;;;4871880;29;20036;-79
2024/02/15 04:58:47;;;;;;;23.50;18.60;;;6.60;20.70;;;;;;4869379;29;20053;-79
2024/02/15 05:01:17;;;;;;;24.90;17.00;;;6.60;17.30;;;;;;4885111;29;20053;-80
2024/02/15 05:03:43;;;;;;;25.15;17.38;;;6.60;17.10;;;;;;4872557;29;20025;-79
2024/02/15 05:06:10;;;;;;;28.40;18.30;;;6.60;18.70;;;;;;4875492;29;20096;-80
2024/02/15 05:08:42;;;;;;;25.92;19.15;;;6.60;17.10;;;;;;4888887;29;20025;-79
2024/02/15 05:11:22;;;;;;;25.17;18.58;;;6.60;15.90;;;;;;4877993;29;20452;-79
2024/02/15 05:13:51;;;;;;;22.65;16.83;;;6.60;15.60;;;;;;4888228;29;20025;-79
2024/02/15 05:16:20;;;;;;;22.83;16.63;;;6.60;11.90;;;;;;4889088;29;20029;-79
2024/02/15 05:18:46;;;;;;;21.85;17.20;;;6.60;10.30;;;;;;4874246;29;20032;-79
2024/02/15 05:21:13;;;;;;;23.48;17.65;;;6.60;14.60;;;;;;4889705;29;20025;-79
2024/02/15 05:23:39;;;;;;;24.65;18.35;;;6.60;17.90;;;;;;4890270;29;20056;-79
2024/02/15 05:26:07;;;;;;;26.48;17.95;;;6.50;20.70;;;;;;4888228;29;20052;-79
2024/02/15 05:28:33;;;;;;;26.33;18.80;;;6.50;22.00;;;;;;4875679;29;20029;-79
2024/02/15 05:31:19;;;;;;;25.02;18.52;;;6.50;24.90;;;;;;4889223;29;20042;-79
2024/02/15 05:33:47;;;;;;;29.92;18.48;;;6.50;27.10;;;;;;4880422;29;20031;-79
2024/02/15 05:36:13;;;;;;;24.77;17.80;;;6.50;26.10;;;;;;4888202;29;20021;-79
2024/02/15 05:38:40;;;;;;;24.02;18.65;;;6.50;18.30;;;;;;4882568;29;20044;-79
2024/02/15 05:41:08;;;;;;;27.05;17.92;;;6.50;15.00;;;;;;4889431;29;20111;-79
2024/02/15 05:43:36;;;;;;;27.33;17.48;;;6.50;14.40;;;;;;4888405;29;20021;-79
2024/02/15 05:46:03;;;;;;;22.95;16.73;;;6.50;10.70;;;;;;4890711;29;20021;-79
2024/02/15 05:48:28;;;;;;;27.40;16.67;;;6.50;13.80;;;;;;4891784;29;20021;-79
2024/02/15 05:51:00;;;;;;;23.98;18.42;;;6.50;20.50;;;;;;4872586;29;20036;-79
2024/02/15 05:53:26;;;;;;;24.45;18.63;;;6.50;22.00;;;;;;4887853;29;20112;-79
2024/02/15 05:55:52;;;;;;;26.33;19.23;;;6.50;24.00;;;;;;4890694;29;20483;-79
2024/02/15 05:58:17;;;;;;;24.65;18.17;;;6.50;22.50;;;;;;4892272;29;20028;-79
2024/02/15 06:00:49;;;;;;;23.63;17.90;;;6.40;20.70;;;;;;4878962;29;20025;-79
2024/02/15 06:03:15;;;;;;;24.23;16.60;;;6.40;19.50;;;;;;4888503;29;20032;-79
2024/02/15 06:05:41;;;;;;;24.02;17.27;;;6.40;19.10;;;;;;4880951;29;20116;-79
2024/02/15 06:08:07;;;;;;;25.42;17.90;;;6.40;21.20;;;;;;4896005;29;20552;-79
2024/02/15 06:10:33;;;;;;;23.73;16.90;;;6.40;23.90;;;;;;4896954;29;20035;-79
2024/02/15 06:12:59;;;;;;;22.42;16.55;;;6.40;22.70;;;;;;4894692;29;20123;-79
2024/02/15 06:15:26;;;;;;;25.05;17.05;;;6.40;22.30;;;;;;4891853;29;20029;-79
2024/02/15 06:17:52;;;;;;;31.77;17.35;;;6.40;22.10;;;;;;4879876;29;20028;-79
2024/02/15 06:20:19;;;;;;;29.05;16.98;;;6.40;15.30;;;;;;4897374;29;20029;-79
2024/02/15 06:22:48;;;;;;;25.50;16.63;;;6.40;15.00;;;;;;4903472;29;20048;-79
2024/02/15 06:25:20;;;;;;;24.58;17.60;;;6.40;19.30;;;;;;4887653;29;20036;-79
2024/02/15 06:27:46;;;;;;;23.85;16.50;;;6.40;21.40;;;;;;4889777;29;20029;-79
2024/02/15 06:41:12;;;;;;;22.40;15.98;;;6.40;6.90;;;;;;4885135;29;20071;-79
2024/02/15 06:43:39;;;;;;;27.02;16.00;;;6.40;8.50;;;;;;4890806;29;20031;-79
2024/02/15 06:46:07;;;;;;;25.83;16.33;;;6.40;9.20;;;;;;4878004;29;20020;-79
2024/02/15 06:48:33;;;;;;;21.88;15.38;;;6.50;11.80;;;;;;4888298;29;20025;-79
2024/02/15 06:50:58;;;;;;;21.60;13.63;;;6.50;8.00;;;;;;4878259;29;20033;-79
2024/02/15 06:53:24;;;;;;;21.10;14.63;;;6.50;4.70;;;;;;4870114;29;20036;-76
2024/02/15 06:55:50;;;;;;;18.92;14.02;;;6.50;4.90;;;;;;4873887;29;20115;-76
2024/02/15 06:58:21;;;;;;;19.25;13.13;;;6.50;1.00;;;;;;4886830;29;20487;-77
2024/02/15 07:00:50;;;;;;;19.67;11.93;;;6.50;1.00;;;;;;4887379;29;20036;-76
2024/02/15 07:03:16;;;;;;;18.85;12.55;;;6.60;1.00;;;;;;4884689;29;20025;-76
2024/02/15 07:05:46;;;;;;;15.25;12.38;;;6.60;1.00;;;;;;4886851;29;20032;-77
2024/02/15 07:08:12;;;;;;;20.10;12.70;;;6.60;1.00;;;;;;4885454;29;20079;-76
2024/02/15 07:10:39;;;;;;;19.40;14.05;;;6.70;1.00;;;;;;4867695;29;20025;-76
2024/02/15 07:13:08;;;;;;;20.08;13.77;;;6.70;1.00;;;;;;4887019;29;20045;-76
2024/02/15 07:15:38;;;;;;;20.38;14.73;;;6.80;1.00;;;;;;4887313;29;20392;-77
2024/02/15 07:18:08;;;;;;;24.52;14.43;;;6.80;1.00;;;;;;4887331;29;20403;-77
2024/02/15 07:20:34;;;;;;;25.98;15.10;;;6.80;1.00;;;;;;4887713;29;20444;-76
2024/02/15 07:23:00;;;;;;;20.33;14.70;;;6.80;1.00;;;;;;4871864;29;20052;-76
2024/02/15 07:25:29;;;;;;;20.08;15.45;;;6.80;1.00;;;;;;4877607;29;20495;-76
2024/02/15 07:27:56;;;;;;;24.60;14.95;;;6.90;1.00;;;;;;4888848;29;20029;-76
2024/02/15 07:30:22;;;;;;;22.23;15.15;;;6.90;1.00;;;;;;4873107;29;20129;-76
2024/02/15 07:32:49;;;;;;;21.48;14.88;;;6.90;1.00;;;;;;4889042;29;20036;-76
2024/02/15 07:35:17;;;;;;;22.63;14.20;;;6.90;1.00;;;;;;4886987;29;20036;-76
2024/02/15 07:38:05;;;;;;;19.95;15.07;;;7.00;1.00;;;;;;4891161;29;20028;-76
2024/02/15 07:40:30;;;;;;;27.02;15.05;;;7.00;1.00;;;;;;4885844;29;20492;-76
2024/02/15 07:42:58;;;;;;;23.60;16.67;;;7.10;1.00;;;;;;4888416;29;20147;-76
2024/02/15 07:45:23;;;;;;;26.25;16.55;;;7.10;1.00;;;;;;4870565;29;20055;-76
2024/02/15 07:47:49;;;;;;;22.63;16.40;;;7.20;1.00;;;;;;4878249;29;20032;-76
2024/02/15 07:50:20;;;;;;;27.92;16.90;;;7.20;1.00;;;;;;4879415;29;20077;-76
2024/02/15 07:52:46;;;;;;;32.33;20.80;;;7.30;1.00;;;;;;4886368;29;20029;-76
2024/02/15 07:55:12;;;;;;;36.42;21.63;;;7.30;1.00;;;;;;4885446;29;20384;-76
2024/02/15 07:57:38;;;;;;;31.58;22.55;;;7.40;3.40;;;;;;4884500;29;20411;-76
2024/02/15 08:00:10;;;;;;;37.65;24.73;;;7.50;4.10;;;;;;4885604;29;20025;-77
2024/02/15 08:02:37;;;;;;;35.97;25.40;;;7.50;5.00;;;;;;4888169;29;20029;-77
2024/02/15 08:05:05;;;;;;;41.20;26.60;;;7.60;26.30;;;;;;4887228;29;20310;-77
2024/02/15 08:07:34;;;;;;;48.83;32.35;;;7.60;42.00;;;;;;4878158;29;20025;-76
2024/02/15 08:10:00;;;;;;;57.85;36.75;;;7.60;46.80;;;;;;4880446;29;20076;-76
2024/02/15 08:12:26;;;;;;;47.70;33.83;;;7.60;50.80;;;;;;4883626;29;20112;-76
2024/02/15 08:14:52;;;;;;;38.67;26.27;;;7.60;45.30;;;;;;4875609;29;20029;-76
2024/02/15 08:17:17;;;;;;;38.53;26.50;;;7.70;34.40;;;;;;4881105;29;20525;-76
2024/02/15 08:19:43;;;;;;;36.38;25.55;;;7.70;27.40;;;;;;4884527;29;20029;-76
2024/02/15 08:22:09;;;;;;;42.40;27.13;;;7.70;25.40;;;;;;4881582;29;20097;-77
2024/02/15 08:24:35;;;;;;;31.98;18.88;;;7.80;23.00;;;;;;4883618;29;20403;-76
2024/02/15 08:27:01;;;;;;;22.17;15.63;;;7.90;6.80;;;;;;4893984;29;20060;-76
2024/02/15 08:29:27;;;;;;;24.63;17.85;;;7.90;1.00;;;;;;4882369;29;20071;-76
2024/02/15 08:31:54;;;;;;;30.70;19.70;;;7.90;1.00;;;;;;4866640;29;20037;-77
2024/02/15 08:34:20;;;;;;;28.90;20.15;;;7.90;1.00;;;;;;4882482;29;20048;-76
2024/02/15 08:36:48;;;;;;;37.88;24.45;;;7.90;1.00;;;;;;4866660;29;20040;-76
2024/02/15 08:39:16;;;;;;;50.92;32.65;;;8.00;8.20;;;;;;4884211;29;20039;-76
2024/02/15 08:41:42;;;;;;;55.63;39.58;;;8.00;27.40;;;;;;4876310;29;20029;-76
2024/02/15 08:44:11;;;;;;;70.97;50.80;;;8.10;44.20;;;;;;4880415;29;20035;-77
2024/02/15 08:46:37;;;;;;;73.40;53.30;;;8.20;75.60;;;;;;4882601;29;20391;-77
2024/02/15 08:49:03;;;;;;;74.57;54.33;;;8.30;90.30;;;;;;4884376;29;20060;-77
2024/02/15 08:51:32;;;;;;;79.72;54.92;;;8.30;94.60;;;;;;4873015;29;20544;-76
2024/02/15 08:53:59;;;;;;;75.72;54.22;;;8.40;97.00;;;;;;4883685;29;20053;-77
2024/02/15 08:56:25;;;;;;;73.13;55.60;;;8.40;93.60;;;;;;4877462;29;20396;-77
2024/02/15 08:58:51;;;;;;;76.88;54.72;;;8.50;95.30;;;;;;4887873;29;20032;-76
2024/02/15 09:01:17;;;;;;;78.68;56.88;;;8.50;93.60;;;;;;4885134;29;20391;-76
2024/02/15 09:03:43;;;;;;;81.45;57.53;;;8.60;91.40;;;;;;4888602;29;20021;-78
2024/02/15 09:06:09;;;;;;;80.97;60.92;;;8.60;96.40;;;;;;4885107;29;20025;-78
2024/02/15 09:08:34;;;;;;;77.55;54.53;;;8.60;97.30;;;;;;4878554;29;20498;-78
2024/02/15 09:11:00;;;;;;;85.18;57.53;;;8.70;86.60;;;;;;4884735;29;20028;-78
2024/02/15 09:13:26;;;;;;;81.43;56.40;;;8.70;93.30;;;;;;4885842;29;20081;-78
2024/02/15 09:15:51;;;;;;;79.97;56.25;;;8.70;94.10;;;;;;4877581;29;20035;-78
2024/02/15 09:18:17;;;;;;;71.32;54.00;;;8.80;82.50;;;;;;4885117;29;20017;-78
2024/02/15 09:20:47;;;;;;;71.45;54.67;;;8.80;79.40;;;;;;4884966;29;20033;-78
2024/02/15 09:23:14;;;;;;;71.57;52.63;;;8.80;84.30;;;;;;4885516;29;20508;-78
2024/02/15 09:25:42;;;;;;;81.72;54.50;;;8.80;78.00;;;;;;4886683;29;20033;-78
2024/02/15 09:28:08;;;;;;;81.20;54.60;;;8.90;84.80;;;;;;4878883;29;20032;-78
2024/02/15 09:30:35;;;;;;;77.82;53.95;;;9.00;86.40;;;;;;4884954;29;20033;-78
2024/02/15 09:33:04;;;;;;;85.20;55.85;;;9.00;86.10;;;;;;4877921;29;20020;-78
2024/02/15 09:35:30;;;;;;;80.13;54.58;;;9.10;92.10;;;;;;4889183;29;20115;-78
2024/02/15 09:37:56;;;;;;;74.85;53.78;;;9.20;91.30;;;;;;4886706;29;20128;-78
2024/02/15 09:40:25;;;;;;;78.00;56.00;;;9.20;67.40;;;;;;4883363;29;20025;-78
2024/02/15 09:42:52;;;;;;;76.00;53.17;;;9.20;85.70;;;;;;4876007;29;20077;-78
2024/02/15 09:45:20;;;;;;;76.82;56.08;;;9.20;87.00;;;;;;4891298;29;20120;-78
2024/02/15 09:47:49;;;;;;;70.80;52.58;;;9.30;79.70;;;;;;4875901;29;20037;-78
2024/02/15 09:50:16;;;;;;;79.85;56.03;;;9.40;90.10;;;;;;4888908;29;20028;-78
2024/02/15 09:52:50;;;;;;;82.63;55.15;;;9.40;82.30;;;;;;4889127;29;20100;-78
2024/02/15 09:55:17;;;;;;;78.10;53.65;;;9.40;78.80;;;;;;4889020;29;20040;-78
2024/02/15 09:57:44;;;;;;;76.55;53.83;;;9.50;84.10;;;;;;4874706;29;20040;-78
2024/02/15 10:00:15;;;;;;;71.53;53.40;;;9.50;87.70;;;;;;4890928;29;20188;-78
2024/02/15 10:02:44;;;;;;;76.53;55.22;;;9.50;78.60;;;;;;4887762;29;20040;-78
2024/02/15 10:05:11;;;;;;;75.03;52.83;;;9.60;71.30;;;;;;4891248;29;20029;-78
2024/02/15 10:07:40;;;;;;;78.05;54.08;;;9.60;71.80;;;;;;4887621;29;20471;-78
2024/02/15 10:10:26;;;;;;;80.25;52.85;;;9.80;55.00;;;;;;4887416;29;20029;-78
2024/02/15 10:12:54;;;;;;;74.80;52.83;;;9.80;51.60;;;;;;4889141;29;20032;-78
2024/02/15 10:15:32;;;;;;;70.50;51.83;;;9.90;37.50;;;;;;4871968;29;20087;-78
2024/02/15 10:17:59;;;;;;;76.43;54.80;;;9.90;58.30;;;;;;4887778;29;20029;-78
2024/02/15 10:20:25;;;;;;;77.28;56.05;;;9.90;58.60;;;;;;4890379;29;20032;-78
2024/02/15 10:23:14;;;;;;;76.55;52.50;;;10.10;51.20;;;;;;4888398;29;20049;-78
2024/02/15 10:25:40;;;;;;;79.50;55.88;;;10.10;49.30;;;;;;4887325;29;20510;-78
2024/02/15 10:28:11;;;;;;;86.25;56.78;;;10.30;47.10;;;;;;4887154;29;20081;-78
2024/02/15 10:30:39;;;;;;;80.13;56.03;;;10.40;54.50;;;;;;4888849;29;20048;-78
2024/02/15 10:33:07;;;;;;;75.80;54.80;;;10.40;29.30;;;;;;4888335;29;20111;-78
2024/02/15 10:35:36;;;;;;;76.72;54.97;;;10.50;27.60;;;;;;4897378;29;20033;-78
2024/02/15 10:38:25;;;;;;;76.50;53.05;;;10.50;32.20;;;;;;4887360;29;20124;-78
2024/02/15 10:41:04;;;;;;;79.30;57.83;;;10.50;8.30;;;;;;4889508;29;20055;-78
2024/02/15 10:43:31;;;;;;;77.03;53.50;;;10.60;21.60;;;;;;4868644;29;20033;-78
2024/02/15 10:45:58;;;;;;;81.38;56.58;;;10.60;15.60;;;;;;4888556;29;20036;-78
2024/02/15 10:48:24;;;;;;;78.43;54.17;;;10.60;1.00;;;;;;4887146;29;20036;-78
2024/02/15 10:50:53;;;;;;;74.65;53.50;;;10.70;12.90;;;;;;4883087;29;20040;-78
2024/02/15 10:53:26;;;;;;;78.90;55.60;;;10.70;1.00;;;;;;4890042;29;20039;-78
2024/02/15 10:56:19;;;;;;;80.68;56.60;;;10.70;22.90;;;;;;4870855;29;20124;-78
2024/02/15 10:59:00;;;;;;;75.55;55.45;;;10.90;34.30;;;;;;4886618;29;20041;-78
2024/02/15 11:01:29;;;;;;;80.72;55.65;;;10.90;39.90;;;;;;4868742;29;20494;-78
2024/02/15 11:04:03;;;;;;;91.25;57.97;;;11.00;15.90;;;;;;4881326;29;20047;-78
2024/02/15 11:06:32;;;;;;;79.18;56.58;;;11.00;23.20;;;;;;4888013;29;20373;-78
2024/02/15 11:08:59;;;;;;;74.68;53.20;;;11.00;1.00;;;;;;4890314;29;20032;-78
2024/02/15 11:11:25;;;;;;;76.35;52.05;;;11.10;9.90;;;;;;4876584;29;20123;-78
2024/02/15 11:14:23;;;;;;;76.45;54.25;;;11.20;20.50;;;;;;4880905;29;20033;-78
2024/02/15 11:16:49;;;;;;;78.28;55.63;;;11.20;11.10;;;;;;4868198;29;20100;-78
2024/02/15 11:19:46;;;;;;;77.20;56.25;;;11.30;4.90;;;;;;4877536;29;20433;-78
2024/02/15 11:22:16;;;;;;;78.18;54.60;;;11.30;1.00;;;;;;4888874;29;20524;-78
2024/02/15 11:24:51;;;;;;;76.22;54.92;;;11.30;1.00;;;;;;4907424;29;20459;-78
2024/02/15 11:27:40;;;;;;;77.80;56.53;;;11.50;1.00;;;;;;4906641;29;20439;-78
2024/02/15 11:30:10;;;;;;;72.78;51.67;;;11.50;5.50;;;;;;4907346;29;20047;-78
2024/02/15 11:32:56;;;;;;;75.20;50.63;;;11.60;1.00;;;;;;4919538;29;20033;-78
2024/02/15 11:35:25;;;;;;;73.22;51.33;;;11.70;13.30;;;;;;4907363;29;20039;-78
2024/02/15 11:37:58;;;;;;;71.75;50.28;;;11.80;18.00;;;;;;4905383;29;20111;-78
2024/02/15 11:40:29;;;;;;;69.53;51.38;;;11.80;1.00;;;;;;4905373;29;20092;-78
2024/02/15 11:43:00;;;;;;;77.80;53.08;;;11.80;1.00;;;;;;4920187;29;20033;-78
2024/02/15 11:45:32;;;;;;;72.30;50.67;;;11.90;1.00;;;;;;4905993;29;20391;-78
2024/02/15 11:47:59;;;;;;;71.10;50.22;;;11.90;1.00;;;;;;4904744;29;20483;-78
2024/02/15 11:50:27;;;;;;;70.45;49.15;;;12.00;1.00;;;;;;4907738;29;20024;-78
2024/02/15 11:53:05;;;;;;;72.82;47.97;;;12.00;1.00;;;;;;4905482;29;20489;-78
2024/02/15 11:55:32;;;;;;;75.28;51.65;;;12.00;1.00;;;;;;4905221;29;20068;-78
2024/02/15 11:58:30;;;;;;;75.47;52.60;;;12.10;1.00;;;;;;4907888;29;20024;-78
2024/02/15 12:20:06;;;;;;;77.38;51.30;;;12.60;1.00;;;;;;4907498;29;20537;-78
2024/02/15 12:22:48;;;;;;;76.82;51.63;;;12.50;1.00;;;;;;4913954;29;20071;-78
2024/02/15 12:25:16;;;;;;;73.20;51.22;;;12.60;1.00;;;;;;4904554;29;20056;-78
2024/02/15 12:27:43;;;;;;;83.32;54.75;;;12.50;1.00;;;;;;4911085;29;20102;-78
2024/02/15 12:30:22;;;;;;;73.57;52.85;;;12.60;1.00;;;;;;4902539;29;20033;-78
2024/02/15 12:32:49;;;;;;;74.78;50.83;;;12.70;1.00;;;;;;4906631;29;20064;-78
2024/02/15 12:35:19;;;;;;;74.20;52.45;;;12.80;1.00;;;;;;4902038;29;20028;-78
2024/02/15 12:38:08;;;;;;;78.43;52.22;;;12.80;1.00;;;;;;4903494;29;20028;-77
2024/02/15 12:40:36;;;;;;;78.25;52.38;;;12.90;1.00;;;;;;4898968;29;20372;-77
2024/02/15 12:43:05;;;;;;;79.10;52.47;;;12.90;1.00;;;;;;4903418;29;20031;-77
2024/02/15 12:45:32;;;;;;;80.25;55.13;;;12.90;1.00;;;;;;4900663;29;20055;-78
2024/02/15 12:47:58;;;;;;;76.65;50.40;;;12.90;1.00;;;;;;4902070;29;20543;-78
2024/02/15 12:50:28;;;;;;;74.82;51.13;;;12.90;1.00;;;;;;4903424;29;20111;-77
2024/02/15 12:52:55;;;;;;;68.30;49.47;;;13.00;1.00;;;;;;4900138;29;20483;-77
2024/02/15 12:55:24;;;;;;;83.80;51.22;;;13.00;1.00;;;;;;4903746;29;20028;-77
2024/02/15 12:57:55;;;;;;;70.32;49.53;;;13.10;1.00;;;;;;4904327;29;20036;-78
2024/02/15 13:00:28;;;;;;;75.53;52.08;;;13.10;1.00;;;;;;4904137;29;20028;-78
2024/02/15 13:02:55;;;;;;;76.75;51.03;;;13.00;1.00;;;;;;4905486;29;20436;-78
2024/02/15 13:05:22;;;;;;;73.18;51.13;;;13.00;1.00;;;;;;4903671;29;20023;-78
2024/02/15 13:07:48;;;;;;;79.32;52.58;;;13.00;1.00;;;;;;4906300;29;20033;-78
2024/02/15 13:10:15;;;;;;;77.50;50.95;;;13.00;1.00;;;;;;4902991;29;20051;-78
2024/02/15 13:12:45;;;;;;;73.63;51.47;;;13.00;1.00;;;;;;4905669;29;20028;-78
2024/02/15 13:15:15;;;;;;;71.18;49.65;;;13.00;1.00;;;;;;4903445;29;20028;-78
2024/02/15 13:17:45;;;;;;;76.40;50.20;;;13.00;1.00;;;;;;4903749;29;20394;-78